sensor_id;sensor_type;location;lat;lon;timestamp;pressure;altitude;pressure_sealevel;temperature;humidity
69780;BME280;57052;55.602;38.096;2024-02-21T00:00:55;101315.25;;;-4.56;59.97
69780;BME280;57052;55.602;38.096;2024-02-21T00:03:20;101329.31;;;-4.55;59.95
69780;BME280;57052;55.602;38.096;2024-02-21T00:05:46;101326.66;;;-4.55;60.11
69780;BME280;57052;55.602;38.096;2024-02-21T00:08:12;101321.53;;;-4.57;60.10
69780;BME280;57052;55.602;38.096;2024-02-21T00:10:38;101321.38;;;-4.55;59.94
69780;BME280;57052;55.602;38.096;2024-02-21T00:13:03;101309.44;;;-4.59;60.11
69780;BME280;57052;55.602;38.096;2024-02-21T00:15:29;101269.09;;;-4.79;60.22
69780;BME280;57052;55.602;38.096;2024-02-21T00:17:55;101310.81;;;-4.55;60.30
69780;BME280;57052;55.602;38.096;2024-02-21T00:20:20;101311.81;;;-4.56;60.29
69780;BME280;57052;55.602;38.096;2024-02-21T00:22:46;101312.34;;;-4.53;60.17
69780;BME280;57052;55.602;38.096;2024-02-21T00:25:12;101298.88;;;-4.59;60.31
69780;BME280;57052;55.602;38.096;2024-02-21T00:27:38;101306.22;;;-4.53;60.37
69780;BME280;57052;55.602;38.096;2024-02-21T00:30:05;101294.69;;;-4.52;60.19
69780;BME280;57052;55.602;38.096;2024-02-21T00:32:31;101279.16;;;-4.65;60.38
69780;BME280;57052;55.602;38.096;2024-02-21T00:35:00;101298.00;;;-4.50;60.50
69780;BME280;57052;55.602;38.096;2024-02-21T00:37:27;101269.00;;;-4.60;60.56
69780;BME280;57052;55.602;38.096;2024-02-21T00:39:56;101275.63;;;-4.56;60.23
69780;BME280;57052;55.602;38.096;2024-02-21T00:42:21;101288.66;;;-4.44;60.16
69780;BME280;57052;55.602;38.096;2024-02-21T00:44:47;101293.09;;;-4.45;60.43
69780;BME280;57052;55.602;38.096;2024-02-21T00:47:13;101287.69;;;-4.43;60.22
69780;BME280;57052;55.602;38.096;2024-02-21T00:49:38;101284.91;;;-4.42;60.35
69780;BME280;57052;55.602;38.096;2024-02-21T00:52:04;101290.84;;;-4.40;60.51
69780;BME280;57052;55.602;38.096;2024-02-21T00:54:30;101282.94;;;-4.40;60.40
69780;BME280;57052;55.602;38.096;2024-02-21T00:56:56;101280.97;;;-4.38;60.50
69780;BME280;57052;55.602;38.096;2024-02-21T00:59:21;101265.72;;;-4.44;60.23
69780;BME280;57052;55.602;38.096;2024-02-21T01:01:47;101278.19;;;-4.36;60.27
69780;BME280;57052;55.602;38.096;2024-02-21T01:04:13;101276.38;;;-4.36;60.46
69780;BME280;57052;55.602;38.096;2024-02-21T01:06:38;101270.09;;;-4.35;60.48
69780;BME280;57052;55.602;38.096;2024-02-21T01:09:05;101270.94;;;-4.34;60.58
69780;BME280;57052;55.602;38.096;2024-02-21T01:11:31;101243.06;;;-4.46;60.64
69780;BME280;57052;55.602;38.096;2024-02-21T01:13:56;101261.22;;;-4.34;60.61
69780;BME280;57052;55.602;38.096;2024-02-21T01:16:23;101247.84;;;-4.32;60.55
69780;BME280;57052;55.602;38.096;2024-02-21T01:18:48;101242.72;;;-4.34;60.71
69780;BME280;57052;55.602;38.096;2024-02-21T01:21:14;101247.56;;;-4.29;60.54
69780;BME280;57052;55.602;38.096;2024-02-21T01:23:40;101241.03;;;-4.35;60.49
69780;BME280;57052;55.602;38.096;2024-02-21T01:26:06;101243.78;;;-4.27;60.52
69780;BME280;57052;55.602;38.096;2024-02-21T01:28:34;101241.81;;;-4.25;60.36
69780;BME280;57052;55.602;38.096;2024-02-21T01:31:00;101240.13;;;-4.26;60.71
69780;BME280;57052;55.602;38.096;2024-02-21T01:33:26;101243.16;;;-4.21;60.80
69780;BME280;57052;55.602;38.096;2024-02-21T01:35:52;101239.56;;;-4.20;60.51
69780;BME280;57052;55.602;38.096;2024-02-21T01:38:18;101242.19;;;-4.20;60.56
69780;BME280;57052;55.602;38.096;2024-02-21T01:40:44;101241.06;;;-4.17;60.93
69780;BME280;57052;55.602;38.096;2024-02-21T01:43:17;101242.72;;;-4.16;60.78
69780;BME280;57052;55.602;38.096;2024-02-21T01:45:50;101235.47;;;-4.14;60.74
69780;BME280;57052;55.602;38.096;2024-02-21T01:48:19;101233.50;;;-4.12;61.17
69780;BME280;57052;55.602;38.096;2024-02-21T01:50:45;101223.91;;;-4.13;60.75
69780;BME280;57052;55.602;38.096;2024-02-21T01:53:44;101225.28;;;-4.09;60.64
69780;BME280;57052;55.602;38.096;2024-02-21T01:56:05;101200.75;;;-4.19;60.99
69780;BME280;57052;55.602;38.096;2024-02-21T01:58:33;101227.47;;;-4.05;60.69
69780;BME280;57052;55.602;38.096;2024-02-21T02:01:02;101200.28;;;-4.15;60.86
69780;BME280;57052;55.602;38.096;2024-02-21T02:03:28;101192.66;;;-4.18;60.79
69780;BME280;57052;55.602;38.096;2024-02-21T02:05:55;101202.34;;;-4.09;60.90
69780;BME280;57052;55.602;38.096;2024-02-21T02:08:21;101204.97;;;-4.09;60.95
69780;BME280;57052;55.602;38.096;2024-02-21T02:10:48;101214.78;;;-4.01;60.68
69780;BME280;57052;55.602;38.096;2024-02-21T02:13:15;101209.63;;;-4.03;60.64
69780;BME280;57052;55.602;38.096;2024-02-21T02:15:45;101214.16;;;-3.95;60.81
69780;BME280;57052;55.602;38.096;2024-02-21T02:18:12;101219.31;;;-3.94;60.70
69780;BME280;57052;55.602;38.096;2024-02-21T02:20:39;101212.66;;;-3.98;60.87
69780;BME280;57052;55.602;38.096;2024-02-21T02:23:11;101216.34;;;-3.91;60.68
69780;BME280;57052;55.602;38.096;2024-02-21T02:25:38;101221.34;;;-3.88;60.79
69780;BME280;57052;55.602;38.096;2024-02-21T02:28:05;101220.22;;;-3.85;60.61
69780;BME280;57052;55.602;38.096;2024-02-21T02:30:35;101214.78;;;-3.83;60.75
69780;BME280;57052;55.602;38.096;2024-02-21T02:33:04;101217.44;;;-3.83;61.03
69780;BME280;57052;55.602;38.096;2024-02-21T02:35:31;101216.44;;;-3.82;60.60
69780;BME280;57052;55.602;38.096;2024-02-21T02:37:57;101205.47;;;-3.88;61.03
69780;BME280;57052;55.602;38.096;2024-02-21T02:40:23;101219.59;;;-3.79;60.58
69780;BME280;57052;55.602;38.096;2024-02-21T02:42:50;101210.16;;;-3.81;60.93
69780;BME280;57052;55.602;38.096;2024-02-21T02:45:17;101215.16;;;-3.78;60.94
69780;BME280;57052;55.602;38.096;2024-02-21T02:47:46;101212.19;;;-3.75;60.93
69780;BME280;57052;55.602;38.096;2024-02-21T02:50:12;101216.34;;;-3.73;60.85
69780;BME280;57052;55.602;38.096;2024-02-21T02:52:38;101191.28;;;-3.86;61.19
69780;BME280;57052;55.602;38.096;2024-02-21T02:55:05;101212.41;;;-3.69;60.69
69780;BME280;57052;55.602;38.096;2024-02-21T02:57:31;101214.91;;;-3.67;61.19
69780;BME280;57052;55.602;38.096;2024-02-21T02:59:56;101194.66;;;-3.76;60.83
69780;BME280;57052;55.602;38.096;2024-02-21T03:02:23;101208.63;;;-3.66;60.87
69780;BME280;57052;55.602;38.096;2024-02-21T03:04:49;101202.81;;;-3.70;61.05
69780;BME280;57052;55.602;38.096;2024-02-21T03:07:15;101204.47;;;-3.69;60.87
69780;BME280;57052;55.602;38.096;2024-02-21T03:09:41;101211.94;;;-3.64;61.16
69780;BME280;57052;55.602;38.096;2024-02-21T03:12:08;101206.50;;;-3.63;61.05
69780;BME280;57052;55.602;38.096;2024-02-21T03:14:35;101188.06;;;-3.72;61.46
69780;BME280;57052;55.602;38.096;2024-02-21T03:17:00;101202.72;;;-3.60;61.10
69780;BME280;57052;55.602;38.096;2024-02-21T03:19:27;101200.91;;;-3.60;61.03
69780;BME280;57052;55.602;38.096;2024-02-21T03:21:53;101194.63;;;-3.59;61.00
69780;BME280;57052;55.602;38.096;2024-02-21T03:24:19;101196.97;;;-3.56;61.25
69780;BME280;57052;55.602;38.096;2024-02-21T03:26:46;101202.94;;;-3.54;61.36
69780;BME280;57052;55.602;38.096;2024-02-21T03:29:16;101197.66;;;-3.54;61.13
69780;BME280;57052;55.602;38.096;2024-02-21T03:31:42;101199.81;;;-3.49;61.28
69780;BME280;57052;55.602;38.096;2024-02-21T03:34:12;101191.88;;;-3.49;61.17
69780;BME280;57052;55.602;38.096;2024-02-21T03:36:37;101143.38;;;-3.83;60.91
69780;BME280;57052;55.602;38.096;2024-02-21T03:39:04;101193.41;;;-3.47;61.13
69780;BME280;57052;55.602;38.096;2024-02-21T03:41:29;101201.34;;;-3.47;61.46
69780;BME280;57052;55.602;38.096;2024-02-21T03:43:55;101194.06;;;-3.45;61.36
69780;BME280;57052;55.602;38.096;2024-02-21T03:46:21;101191.25;;;-3.43;61.57
69780;BME280;57052;55.602;38.096;2024-02-21T03:48:47;101199.88;;;-3.41;61.00
69780;BME280;57052;55.602;38.096;2024-02-21T03:51:13;101200.69;;;-3.41;61.44
69780;BME280;57052;55.602;38.096;2024-02-21T03:53:39;101197.91;;;-3.39;61.55
69780;BME280;57052;55.602;38.096;2024-02-21T03:56:05;101203.03;;;-3.38;61.34
69780;BME280;57052;55.602;38.096;2024-02-21T03:58:31;101203.69;;;-3.36;61.49
69780;BME280;57052;55.602;38.096;2024-02-21T04:00:56;101194.78;;;-3.35;61.28
69780;BME280;57052;55.602;38.096;2024-02-21T04:03:22;101203.41;;;-3.33;61.71
69780;BME280;57052;55.602;38.096;2024-02-21T04:05:48;101149.00;;;-3.61;61.26
69780;BME280;57052;55.602;38.096;2024-02-21T04:08:14;101207.53;;;-3.30;61.13
69780;BME280;57052;55.602;38.096;2024-02-21T04:10:39;101205.75;;;-3.30;61.57
69780;BME280;57052;55.602;38.096;2024-02-21T04:13:06;101202.44;;;-3.32;61.58
69780;BME280;57052;55.602;38.096;2024-02-21T04:15:32;101201.94;;;-3.27;61.47
69780;BME280;57052;55.602;38.096;2024-02-21T04:17:58;101200.97;;;-3.26;61.38
69780;BME280;57052;55.602;38.096;2024-02-21T04:20:23;101202.63;;;-3.25;61.27
69780;BME280;57052;55.602;38.096;2024-02-21T04:22:49;101194.00;;;-3.27;61.63
69780;BME280;57052;55.602;38.096;2024-02-21T04:25:15;101202.63;;;-3.25;61.55
69780;BME280;57052;55.602;38.096;2024-02-21T04:27:41;101175.41;;;-3.35;61.83
69780;BME280;57052;55.602;38.096;2024-02-21T04:30:07;101203.16;;;-3.21;61.45
69780;BME280;57052;55.602;38.096;2024-02-21T04:32:35;101194.19;;;-3.20;61.59
69780;BME280;57052;55.602;38.096;2024-02-21T04:35:01;101202.31;;;-3.22;61.81
69780;BME280;57052;55.602;38.096;2024-02-21T04:37:27;101174.44;;;-3.34;61.80
69780;BME280;57052;55.602;38.096;2024-02-21T04:39:53;101203.50;;;-3.16;61.41
69780;BME280;57052;55.602;38.096;2024-02-21T04:42:18;101201.53;;;-3.14;61.79
69780;BME280;57052;55.602;38.096;2024-02-21T04:44:44;101195.91;;;-3.11;61.12
69780;BME280;57052;55.602;38.096;2024-02-21T04:47:10;101194.09;;;-3.11;61.64
69780;BME280;57052;55.602;38.096;2024-02-21T04:49:36;101206.50;;;-3.11;61.34
69780;BME280;57052;55.602;38.096;2024-02-21T04:52:02;101196.06;;;-3.13;61.42
69780;BME280;57052;55.602;38.096;2024-02-21T04:54:27;101196.75;;;-3.11;62.02
69780;BME280;57052;55.602;38.096;2024-02-21T04:56:53;101202.84;;;-3.10;61.88
69780;BME280;57052;55.602;38.096;2024-02-21T04:59:19;101208.69;;;-3.07;61.61
69780;BME280;57052;55.602;38.096;2024-02-21T05:01:44;101194.91;;;-3.10;61.45
69780;BME280;57052;55.602;38.096;2024-02-21T05:04:10;101201.25;;;-3.03;62.01
69780;BME280;57052;55.602;38.096;2024-02-21T05:06:39;101184.81;;;-3.15;61.97
69780;BME280;57052;55.602;38.096;2024-02-21T05:09:06;101195.63;;;-3.00;62.13
69780;BME280;57052;55.602;38.096;2024-02-21T05:11:32;101209.72;;;-3.00;61.85
69780;BME280;57052;55.602;38.096;2024-02-21T05:13:58;101205.06;;;-2.98;61.77
69780;BME280;57052;55.602;38.096;2024-02-21T05:16:23;101203.78;;;-2.94;61.81
69780;BME280;57052;55.602;38.096;2024-02-21T05:18:49;101203.63;;;-2.92;61.83
69780;BME280;57052;55.602;38.096;2024-02-21T05:21:15;101201.97;;;-2.93;61.89
69780;BME280;57052;55.602;38.096;2024-02-21T05:23:41;101201.63;;;-2.90;61.85
69780;BME280;57052;55.602;38.096;2024-02-21T05:26:07;101200.00;;;-2.91;61.82
69780;BME280;57052;55.602;38.096;2024-02-21T05:28:32;101202.00;;;-2.85;61.31
69780;BME280;57052;55.602;38.096;2024-02-21T05:30:58;101201.00;;;-2.84;61.48
69780;BME280;57052;55.602;38.096;2024-02-21T05:33:24;101203.34;;;-2.81;61.78
69780;BME280;57052;55.602;38.096;2024-02-21T05:35:51;101198.72;;;-2.79;61.55
69780;BME280;57052;55.602;38.096;2024-02-21T05:38:17;101196.91;;;-2.79;61.19
69780;BME280;57052;55.602;38.096;2024-02-21T05:40:44;101200.53;;;-2.80;61.88
69780;BME280;57052;55.602;38.096;2024-02-21T05:43:10;101201.69;;;-2.82;61.85
69780;BME280;57052;55.602;38.096;2024-02-21T05:45:36;101206.66;;;-2.79;61.59
69780;BME280;57052;55.602;38.096;2024-02-21T05:48:03;101197.22;;;-2.82;61.43
69780;BME280;57052;55.602;38.096;2024-02-21T05:50:29;101189.59;;;-2.85;61.20
69780;BME280;57052;55.602;38.096;2024-02-21T05:52:55;101173.50;;;-2.91;61.39
69780;BME280;57052;55.602;38.096;2024-02-21T05:55:22;101198.09;;;-2.73;61.67
69780;BME280;57052;55.602;38.096;2024-02-21T05:57:48;101195.09;;;-2.70;61.52
69780;BME280;57052;55.602;38.096;2024-02-21T06:00:14;101206.03;;;-2.65;61.65
69780;BME280;57052;55.602;38.096;2024-02-21T06:02:41;101180.00;;;-2.78;61.49
69780;BME280;57052;55.602;38.096;2024-02-21T06:05:07;101205.41;;;-2.59;61.38
69780;BME280;57052;55.602;38.096;2024-02-21T06:07:34;101206.25;;;-2.58;61.03
69780;BME280;57052;55.602;38.096;2024-02-21T06:10:03;101207.22;;;-2.60;61.10
69780;BME280;57052;55.602;38.096;2024-02-21T06:12:30;101197.63;;;-2.61;61.28
69780;BME280;57052;55.602;38.096;2024-02-21T06:14:56;101200.59;;;-2.55;61.01
69780;BME280;57052;55.602;38.096;2024-02-21T06:17:26;101196.97;;;-2.54;60.96
69780;BME280;57052;55.602;38.096;2024-02-21T06:19:52;101204.28;;;-2.48;61.56
69780;BME280;57052;55.602;38.096;2024-02-21T06:22:18;101204.78;;;-2.45;61.21
69780;BME280;57052;55.602;38.096;2024-02-21T06:24:43;101204.47;;;-2.42;61.20
69780;BME280;57052;55.602;38.096;2024-02-21T06:27:09;101203.97;;;-2.37;61.34
69780;BME280;57052;55.602;38.096;2024-02-21T06:29:37;101185.06;;;-2.42;61.08
69780;BME280;57052;55.602;38.096;2024-02-21T06:32:03;101204.00;;;-2.29;60.63
69780;BME280;57052;55.602;38.096;2024-02-21T06:34:29;101203.34;;;-2.23;61.19
69780;BME280;57052;55.602;38.096;2024-02-21T06:36:54;101201.06;;;-2.18;61.13
69780;BME280;57052;55.602;38.096;2024-02-21T06:39:20;101205.69;;;-2.12;61.13
69780;BME280;57052;55.602;38.096;2024-02-21T06:41:47;101202.38;;;-2.06;61.17
69780;BME280;57052;55.602;38.096;2024-02-21T06:44:13;101200.41;;;-2.04;60.56
69780;BME280;57052;55.602;38.096;2024-02-21T06:46:39;101196.41;;;-2.00;60.60
69780;BME280;57052;55.602;38.096;2024-02-21T06:49:04;101202.03;;;-1.95;60.79
69780;BME280;57052;55.602;38.096;2024-02-21T06:51:30;101206.88;;;-1.90;60.94
69780;BME280;57052;55.602;38.096;2024-02-21T06:53:56;101213.31;;;-1.85;60.37
69780;BME280;57052;55.602;38.096;2024-02-21T06:56:25;101188.31;;;-1.90;60.38
69780;BME280;57052;55.602;38.096;2024-02-21T06:58:55;101208.22;;;-1.78;60.30
69780;BME280;57052;55.602;38.096;2024-02-21T07:01:21;101207.72;;;-1.74;60.58
69780;BME280;57052;55.602;38.096;2024-02-21T07:03:47;101199.75;;;-1.74;60.18
69780;BME280;57052;55.602;38.096;2024-02-21T07:06:13;101178.69;;;-1.83;59.89
69780;BME280;57052;55.602;38.096;2024-02-21T07:08:39;101204.38;;;-1.68;60.32
69780;BME280;57052;55.602;38.096;2024-02-21T07:11:05;101204.03;;;-1.65;59.83
69780;BME280;57052;55.602;38.096;2024-02-21T07:13:32;101208.69;;;-1.59;59.79
69780;BME280;57052;55.602;38.096;2024-02-21T07:15:58;101202.03;;;-1.55;60.37
69780;BME280;57052;55.602;38.096;2024-02-21T07:18:23;101201.91;;;-1.53;60.29
69780;BME280;57052;55.602;38.096;2024-02-21T07:20:51;101206.69;;;-1.49;60.03
69780;BME280;57052;55.602;38.096;2024-02-21T07:23:18;101199.56;;;-1.48;59.65
69780;BME280;57052;55.602;38.096;2024-02-21T07:25:44;101209.69;;;-1.44;60.07
69780;BME280;57052;55.602;38.096;2024-02-21T07:28:10;101203.22;;;-1.41;59.60
69780;BME280;57052;55.602;38.096;2024-02-21T07:30:36;101180.97;;;-1.48;59.90
69780;BME280;57052;55.602;38.096;2024-02-21T07:33:02;101191.88;;;-1.35;59.74
69780;BME280;57052;55.602;38.096;2024-02-21T07:35:27;101194.88;;;-1.30;59.45
69780;BME280;57052;55.602;38.096;2024-02-21T07:37:53;101186.75;;;-1.28;59.43
69780;BME280;57052;55.602;38.096;2024-02-21T07:40:19;101200.81;;;-1.20;59.44
69780;BME280;57052;55.602;38.096;2024-02-21T07:42:45;101190.53;;;-1.15;59.59
69780;BME280;57052;55.602;38.096;2024-02-21T07:45:11;101194.50;;;-1.11;59.63
69780;BME280;57052;55.602;38.096;2024-02-21T07:47:37;101194.31;;;-1.09;59.55
69780;BME280;57052;55.602;38.096;2024-02-21T07:50:03;101196.97;;;-1.01;59.37
69780;BME280;57052;55.602;38.096;2024-02-21T07:52:29;101197.28;;;-0.96;59.35
69780;BME280;57052;55.602;38.096;2024-02-21T07:54:55;101189.97;;;-0.94;59.09
69780;BME280;57052;55.602;38.096;2024-02-21T07:57:21;101192.09;;;-0.90;59.04
69780;BME280;57052;55.602;38.096;2024-02-21T07:59:47;101199.91;;;-0.88;58.73
69780;BME280;57052;55.602;38.096;2024-02-21T08:02:14;101198.56;;;-0.84;58.79
69780;BME280;57052;55.602;38.096;2024-02-21T08:04:40;101188.25;;;-0.79;59.11
69780;BME280;57052;55.602;38.096;2024-02-21T08:07:06;101194.88;;;-0.75;58.64
69780;BME280;57052;55.602;38.096;2024-02-21T08:09:32;101193.53;;;-0.71;58.58
69780;BME280;57052;55.602;38.096;2024-02-21T08:11:57;101180.59;;;-0.74;58.47
69780;BME280;57052;55.602;38.096;2024-02-21T08:14:23;101192.78;;;-0.57;58.71
69780;BME280;57052;55.602;38.096;2024-02-21T08:16:51;101195.09;;;-0.54;58.39
69780;BME280;57052;55.602;38.096;2024-02-21T08:19:18;101197.09;;;-0.48;58.12
69780;BME280;57052;55.602;38.096;2024-02-21T08:21:44;101196.06;;;-0.47;58.22
69780;BME280;57052;55.602;38.096;2024-02-21T08:24:13;101185.28;;;-0.45;57.92
69780;BME280;57052;55.602;38.096;2024-02-21T08:26:43;101190.06;;;-0.41;57.87
69780;BME280;57052;55.602;38.096;2024-02-21T08:29:12;101186.88;;;-0.36;57.86
69780;BME280;57052;55.602;38.096;2024-02-21T08:31:38;101178.41;;;-0.40;57.63
69780;BME280;57052;55.602;38.096;2024-02-21T08:34:04;101185.50;;;-0.32;57.84
69780;BME280;57052;55.602;38.096;2024-02-21T08:36:31;101186.63;;;-0.27;57.93
69780;BME280;57052;55.602;38.096;2024-02-21T08:38:58;101187.97;;;-0.23;57.85
69780;BME280;57052;55.602;38.096;2024-02-21T08:41:24;101184.41;;;-0.15;57.61
69780;BME280;57052;55.602;38.096;2024-02-21T08:43:53;101164.47;;;-0.19;57.48
69780;BME280;57052;55.602;38.096;2024-02-21T08:46:20;101183.00;;;-0.03;57.22
69780;BME280;57052;55.602;38.096;2024-02-21T08:48:47;101186.94;;;0.01;57.16
69780;BME280;57052;55.602;38.096;2024-02-21T08:51:13;101165.84;;;-0.01;56.73
69780;BME280;57052;55.602;38.096;2024-02-21T08:53:39;101128.25;;;-0.20;57.26
69780;BME280;57052;55.602;38.096;2024-02-21T08:56:05;101172.22;;;0.13;57.36
69780;BME280;57052;55.602;38.096;2024-02-21T08:58:33;101163.38;;;0.13;57.33
69780;BME280;57052;55.602;38.096;2024-02-21T09:00:59;101155.06;;;0.16;57.22
69780;BME280;57052;55.602;38.096;2024-02-21T09:03:24;101176.22;;;0.32;56.93
69780;BME280;57052;55.602;38.096;2024-02-21T09:05:50;101123.56;;;0.05;56.79
69780;BME280;57052;55.602;38.096;2024-02-21T09:08:16;101167.63;;;0.44;56.84
69780;BME280;57052;55.602;38.096;2024-02-21T09:10:42;101163.69;;;0.55;56.98
69780;BME280;57052;55.602;38.096;2024-02-21T09:13:07;101158.25;;;0.63;56.14
69780;BME280;57052;55.602;38.096;2024-02-21T09:15:34;101156.16;;;0.73;55.98
69780;BME280;57052;55.602;38.096;2024-02-21T09:18:00;101169.13;;;0.91;56.30
69780;BME280;57052;55.602;38.096;2024-02-21T09:20:25;101155.22;;;0.95;55.82
69780;BME280;57052;55.602;38.096;2024-02-21T09:22:51;101163.63;;;1.07;55.81
69780;BME280;57052;55.602;38.096;2024-02-21T09:25:18;101148.81;;;1.04;55.81
69780;BME280;57052;55.602;38.096;2024-02-21T09:27:45;101157.72;;;1.11;55.36
69780;BME280;57052;55.602;38.096;2024-02-21T09:30:11;101154.84;;;1.13;55.87
69780;BME280;57052;55.602;38.096;2024-02-21T09:32:37;101161.28;;;1.18;55.43
69780;BME280;57052;55.602;38.096;2024-02-21T09:35:04;101151.53;;;1.25;55.54
69780;BME280;57052;55.602;38.096;2024-02-21T09:37:31;101147.28;;;1.31;55.16
69780;BME280;57052;55.602;38.096;2024-02-21T09:39:57;101151.53;;;1.40;54.57
69780;BME280;57052;55.602;38.096;2024-02-21T09:42:28;101147.47;;;1.44;54.40
69780;BME280;57052;55.602;38.096;2024-02-21T09:44:57;101127.78;;;1.45;54.77
69780;BME280;57052;55.602;38.096;2024-02-21T09:47:34;101136.31;;;1.55;53.25
69780;BME280;57052;55.602;38.096;2024-02-21T09:50:05;101138.03;;;1.63;54.62
69780;BME280;57052;55.602;38.096;2024-02-21T09:52:32;101142.16;;;1.65;54.59
69780;BME280;57052;55.602;38.096;2024-02-21T09:55:01;101145.91;;;1.71;53.98
69780;BME280;57052;55.602;38.096;2024-02-21T09:57:27;101123.03;;;1.62;54.21
69780;BME280;57052;55.602;38.096;2024-02-21T09:59:55;101132.38;;;1.72;54.00
69780;BME280;57052;55.602;38.096;2024-02-21T10:02:40;101137.53;;;1.74;52.21
69780;BME280;57052;55.602;38.096;2024-02-21T10:05:06;101134.84;;;1.74;54.20
69780;BME280;57052;55.602;38.096;2024-02-21T10:07:33;101146.16;;;1.76;53.42
69780;BME280;57052;55.602;38.096;2024-02-21T10:10:05;101137.31;;;1.75;53.32
69780;BME280;57052;55.602;38.096;2024-02-21T10:12:31;101132.38;;;1.72;53.97
69780;BME280;57052;55.602;38.096;2024-02-21T10:15:04;101144.53;;;1.75;52.97
69780;BME280;57052;55.602;38.096;2024-02-21T10:17:32;101130.09;;;1.69;53.38
69780;BME280;57052;55.602;38.096;2024-02-21T10:20:10;101133.59;;;1.70;52.47
69780;BME280;57052;55.602;38.096;2024-02-21T10:22:38;101128.25;;;1.70;53.94
69780;BME280;57052;55.602;38.096;2024-02-21T10:25:08;101127.16;;;1.64;53.42
69780;BME280;57052;55.602;38.096;2024-02-21T10:27:34;101115.13;;;1.54;53.69
69780;BME280;57052;55.602;38.096;2024-02-21T10:32:55;101118.59;;;1.48;52.86
69780;BME280;57052;55.602;38.096;2024-02-21T10:35:29;101120.31;;;1.41;53.16
69780;BME280;57052;55.602;38.096;2024-02-21T10:37:56;101121.34;;;1.40;53.83
69780;BME280;57052;55.602;38.096;2024-02-21T10:40:26;101120.72;;;1.38;54.05
69780;BME280;57052;55.602;38.096;2024-02-21T10:43:01;101113.09;;;1.35;53.46
69780;BME280;57052;55.602;38.096;2024-02-21T10:45:30;101121.94;;;1.35;54.22
69780;BME280;57052;55.602;38.096;2024-02-21T10:48:08;101124.50;;;1.28;54.08
69780;BME280;57052;55.602;38.096;2024-02-21T10:53:29;101115.34;;;1.16;53.85
69780;BME280;57052;55.602;38.096;2024-02-21T10:56:16;101123.22;;;1.24;54.92
69780;BME280;57052;55.602;38.096;2024-02-21T10:58:46;101119.09;;;1.22;54.88
69780;BME280;57052;55.602;38.096;2024-02-21T11:01:13;101104.19;;;1.13;54.70
69780;BME280;57052;55.602;38.096;2024-02-21T11:03:45;101119.00;;;1.15;54.31
69780;BME280;57052;55.602;38.096;2024-02-21T11:06:12;101110.72;;;1.10;54.86
69780;BME280;57052;55.602;38.096;2024-02-21T11:08:39;101112.75;;;1.08;54.40
69780;BME280;57052;55.602;38.096;2024-02-21T11:11:05;101116.81;;;1.04;54.92
69780;BME280;57052;55.602;38.096;2024-02-21T11:13:37;101099.56;;;0.86;54.33
69780;BME280;57052;55.602;38.096;2024-02-21T11:16:11;101116.84;;;0.90;54.13
69780;BME280;57052;55.602;38.096;2024-02-21T11:18:40;101102.69;;;0.89;54.89
69780;BME280;57052;55.602;38.096;2024-02-21T11:21:06;101106.09;;;0.83;55.25
69780;BME280;57052;55.602;38.096;2024-02-21T11:23:32;101057.31;;;0.53;54.98
69780;BME280;57052;55.602;38.096;2024-02-21T11:26:07;101092.47;;;0.78;54.71
69780;BME280;57052;55.602;38.096;2024-02-21T11:28:33;101081.47;;;0.67;55.27
69780;BME280;57052;55.602;38.096;2024-02-21T11:31:11;101091.41;;;0.73;54.79
69780;BME280;57052;55.602;38.096;2024-02-21T11:33:41;101076.97;;;0.67;55.21
69780;BME280;57052;55.602;38.096;2024-02-21T11:36:10;101091.41;;;0.73;55.37
69780;BME280;57052;55.602;38.096;2024-02-21T11:38:36;101087.63;;;0.67;55.29
69780;BME280;57052;55.602;38.096;2024-02-21T11:41:02;101087.16;;;0.63;55.41
69780;BME280;57052;55.602;38.096;2024-02-21T11:43:28;101087.16;;;0.63;55.13
69780;BME280;57052;55.602;38.096;2024-02-21T11:46:01;101074.22;;;0.46;55.25
69780;BME280;57052;55.602;38.096;2024-02-21T11:48:30;101090.31;;;0.67;55.62
69780;BME280;57052;55.602;38.096;2024-02-21T11:50:57;101082.19;;;0.60;55.56
69780;BME280;57052;55.602;38.096;2024-02-21T11:53:23;101090.03;;;0.62;55.57
69780;BME280;57052;55.602;38.096;2024-02-21T11:55:49;101096.56;;;0.59;55.61
69780;BME280;57052;55.602;38.096;2024-02-21T11:58:15;101056.75;;;0.43;55.58
69780;BME280;57052;55.602;38.096;2024-02-21T12:00:42;101071.75;;;0.44;55.86
69780;BME280;57052;55.602;38.096;2024-02-21T12:03:08;101084.31;;;0.50;55.59
69780;BME280;57052;55.602;38.096;2024-02-21T12:05:34;101081.66;;;0.50;55.78
69780;BME280;57052;55.602;38.096;2024-02-21T12:08:00;101069.91;;;0.45;56.02
69780;BME280;57052;55.602;38.096;2024-02-21T12:10:26;101064.75;;;0.43;55.90
69780;BME280;57052;55.602;38.096;2024-02-21T12:13:15;101082.84;;;0.48;56.00
69780;BME280;57052;55.602;38.096;2024-02-21T12:15:41;101081.84;;;0.49;55.99
69780;BME280;57052;55.602;38.096;2024-02-21T12:18:06;101074.84;;;0.48;56.06
69780;BME280;57052;55.602;38.096;2024-02-21T12:20:32;101076.88;;;0.46;55.93
69780;BME280;57052;55.602;38.096;2024-02-21T12:23:01;101072.59;;;0.45;56.18
69780;BME280;57052;55.602;38.096;2024-02-21T12:25:28;101071.75;;;0.44;56.13
69780;BME280;57052;55.602;38.096;2024-02-21T12:27:54;101069.63;;;0.40;56.08
69780;BME280;57052;55.602;38.096;2024-02-21T12:30:21;101069.63;;;0.40;56.33
69780;BME280;57052;55.602;38.096;2024-02-21T12:32:47;101064.47;;;0.38;56.22
69780;BME280;57052;55.602;38.096;2024-02-21T12:37:58;101049.41;;;0.31;56.30
69780;BME280;57052;55.602;38.096;2024-02-21T12:40:25;101060.91;;;0.31;56.10
69780;BME280;57052;55.602;38.096;2024-02-21T12:42:51;101061.09;;;0.30;56.33
69780;BME280;57052;55.602;38.096;2024-02-21T12:45:18;101058.78;;;0.27;56.23
69780;BME280;57052;55.602;38.096;2024-02-21T12:47:43;101049.13;;;0.26;56.29
69780;BME280;57052;55.602;38.096;2024-02-21T12:50:09;101044.00;;;0.24;56.29